createdAt,value
2022-09-28T00:04:37.880Z,99053.11
2022-09-28T00:09:41.557Z,99057.80
2022-09-28T00:14:45.411Z,99054.15
2022-09-28T00:19:49.232Z,99050.23
2022-09-28T00:24:55.624Z,99047.52
2022-09-28T00:29:59.452Z,99043.89
2022-09-28T00:35:07.897Z,99041.55
2022-09-28T00:40:15.778Z,99039.05
2022-09-28T00:45:22.400Z,99034.67
2022-09-28T00:50:34.711Z,99030.51
2022-09-28T00:55:45.712Z,99027.63
2022-09-28T01:00:56.146Z,99030.92
2022-09-28T01:06:09.913Z,99029.59
2022-09-28T01:11:14.013Z,99025.14
2022-09-28T01:16:25.412Z,99016.08
2022-09-28T01:21:37.881Z,99020.48
2022-09-28T01:26:57.055Z,99017.02
2022-09-28T01:32:08.054Z,99023.77
2022-09-28T01:37:16.893Z,99026.77
2022-09-28T01:42:25.125Z,99027.75
2022-09-28T01:47:33.745Z,99032.03
2022-09-28T01:52:43.873Z,99028.45
2022-09-28T01:57:52.985Z,99030.21
2022-09-28T02:03:01.931Z,99028.59
2022-09-28T02:08:20.382Z,99029.46
2022-09-28T02:13:32.813Z,99027.48
2022-09-28T02:18:37.349Z,99032.08
2022-09-28T02:23:49.313Z,99030.88
2022-09-28T02:28:53.103Z,99023.73
2022-09-28T02:34:00.520Z,99016.30
2022-09-28T02:39:04.560Z,99015.76
2022-09-28T02:44:18.341Z,99015.23
2022-09-28T02:49:32.200Z,99016.36
2022-09-28T02:54:56.521Z,99013.35
2022-09-28T03:00:07.505Z,99010.04
2022-09-28T03:05:18.642Z,99011.54
2022-09-28T03:10:31.995Z,99011.45
2022-09-28T03:15:37.007Z,99012.86
2022-09-28T03:20:40.953Z,99009.81
2022-09-28T03:25:45.040Z,99009.36
2022-09-28T03:30:48.678Z,99009.48
2022-09-28T03:35:52.890Z,99013.88
2022-09-28T03:40:58.445Z,99009.39
2022-09-28T03:46:03.802Z,99014.98
2022-09-28T03:51:13.185Z,99015.60
2022-09-28T03:56:17.403Z,99012.81
2022-09-28T04:01:21.480Z,99013.23
2022-09-28T04:06:27.270Z,99015.64
2022-09-28T04:11:43.010Z,99024.70
2022-09-28T04:16:55.405Z,99015.55
2022-09-28T04:22:02.147Z,99018.09
2022-09-28T04:27:24.619Z,99018.84
2022-09-28T04:32:28.302Z,99026.96
2022-09-28T04:37:31.984Z,99027.39
2022-09-28T04:42:37.212Z,99023.84
2022-09-28T04:47:40.972Z,99024.45
2022-09-28T04:53:03.675Z,99026.52
2022-09-28T04:58:07.358Z,99031.08
2022-09-28T05:03:11.131Z,99030.57
2022-09-28T05:08:41.788Z,99021.19
2022-09-28T05:13:46.035Z,99025.84
2022-09-28T05:18:56.050Z,99029.45
2022-09-28T05:23:59.882Z,99033.67
2022-09-28T05:29:04.474Z,99038.61
2022-09-28T05:34:26.297Z,99037.90
2022-09-28T05:39:31.456Z,99034.04
2022-09-28T05:44:35.160Z,99036.00
2022-09-28T05:49:39.139Z,99036.60
2022-09-28T05:54:45.435Z,99033.94
2022-09-28T05:59:51.267Z,99031.45
2022-09-28T06:04:55.586Z,99034.38
2022-09-28T06:09:59.522Z,99036.81
2022-09-28T06:15:15.375Z,99030.54
2022-09-28T06:20:20.280Z,99034.25
2022-09-28T06:25:33.263Z,99034.68
2022-09-28T06:30:38.652Z,99032.48
2022-09-28T06:35:49.671Z,99027.84
2022-09-28T06:40:54.254Z,99026.13
2022-09-28T06:46:25.044Z,99028.44
2022-09-28T06:51:50.234Z,99035.28
2022-09-28T06:57:02.707Z,99037.99
2022-09-28T07:02:07.306Z,99043.67
2022-09-28T07:07:26.474Z,99046.45
2022-09-28T07:12:53.412Z,99044.71
2022-09-28T07:18:06.607Z,99047.46
2022-09-28T07:23:18.978Z,99048.69
2022-09-28T07:28:42.555Z,99047.47
2022-09-28T07:34:04.876Z,99047.76
2022-09-28T07:39:51.559Z,99045.93
2022-09-28T07:44:55.633Z,99046.61
2022-09-28T07:49:59.388Z,99047.42
2022-09-28T07:55:21.304Z,99050.56
2022-09-28T08:00:47.815Z,99052.38
2022-09-28T08:05:51.365Z,99055.73
2022-09-28T08:30:19.217Z,99048.33
2022-09-28T08:35:33.772Z,99052.14
2022-09-28T08:41:51.080Z,99064.61
2022-09-28T08:47:37.077Z,99061.86
2022-09-28T08:53:14.461Z,99061.08
2022-09-28T08:58:47.130Z,99057.52
2022-09-28T09:11:33.347Z,99059.09
2022-09-28T09:16:58.715Z,99060.31
2022-09-28T09:22:40.582Z,99055.80
2022-09-28T09:28:16.876Z,99057.95
2022-09-28T09:34:01.044Z,99062.68
2022-09-28T09:39:38.866Z,99071.97
2022-09-28T09:45:25.410Z,99071.84
2022-09-28T09:50:52.705Z,99075.29
2022-09-28T09:56:02.111Z,99081.68
2022-09-28T10:02:15.607Z,99082.20
2022-09-28T10:07:41.383Z,99088.20
2022-09-28T10:12:49.645Z,99085.23
2022-09-28T10:17:56.184Z,99083.48
2022-09-28T10:24:01.224Z,99079.05
2022-09-28T10:29:15.566Z,99077.96
2022-09-28T10:34:26.922Z,99069.31
2022-09-28T10:39:35.688Z,99061.81
2022-09-28T10:44:55.098Z,99055.95
2022-09-28T10:50:14.292Z,99055.48
2022-09-28T10:55:28.230Z,99053.67
2022-09-28T11:00:39.153Z,99048.36
2022-09-28T11:06:03.917Z,99042.07
2022-09-28T11:11:13.893Z,99031.52
2022-09-28T11:16:26.616Z,99024.98
2022-09-28T11:21:40.690Z,99025.98
2022-09-28T11:26:46.501Z,99023.06
2022-09-28T11:32:01.282Z,99029.54
2022-09-28T11:37:32.823Z,99032.03
2022-09-28T11:42:47.070Z,99034.14
2022-09-28T11:47:57.360Z,99031.55
2022-09-28T11:53:11.742Z,99023.05
2022-09-28T11:58:23.164Z,99019.00
2022-09-28T12:03:34.573Z,99024.43
2022-09-28T12:08:44.520Z,99033.21
2022-09-28T12:14:11.731Z,99029.83
2022-09-28T12:19:19.335Z,99029.06
2022-09-28T12:24:28.157Z,99027.03
2022-09-28T12:29:38.433Z,99034.61
2022-09-28T12:34:42.901Z,99030.25
2022-09-28T12:40:05.096Z,99030.88
2022-09-28T12:45:27.205Z,99036.15
2022-09-28T12:50:39.298Z,99033.46
2022-09-28T12:55:55.754Z,99030.02
2022-09-28T13:01:09.247Z,99028.16
2022-09-28T13:06:36.539Z,99028.45
2022-09-28T13:12:02.999Z,99017.39
2022-09-28T13:17:16.636Z,99021.16
2022-09-28T13:22:33.930Z,99020.24
2022-09-28T13:34:36.383Z,99022.08
2022-09-28T13:39:51.622Z,99019.69
2022-09-28T13:45:22.131Z,99019.98
2022-09-28T13:50:37.925Z,99017.27
2022-09-28T13:55:56.131Z,99016.26
2022-09-28T14:01:07.785Z,99017.10
2022-09-28T14:06:25.683Z,99013.41
2022-09-28T14:11:56.456Z,99010.91
2022-09-28T14:17:49.570Z,99007.61
2022-09-28T14:23:20.940Z,99012.38
2022-09-28T14:28:44.061Z,99016.83
2022-09-28T14:33:58.916Z,99015.71
2022-09-28T14:39:21.325Z,99018.61
2022-09-28T14:44:28.194Z,99017.39
2022-09-28T14:50:00.059Z,99015.52
2022-09-28T14:55:11.369Z,99015.00
2022-09-28T15:00:20.480Z,99019.43
2022-09-28T15:05:27.867Z,99020.66
2022-09-28T15:10:36.636Z,99019.27
2022-09-28T15:15:41.784Z,99018.39
2022-09-28T15:20:48.763Z,99014.35
2022-09-28T15:25:54.112Z,99016.42
2022-09-28T15:31:04.967Z,99018.86
2022-09-28T15:36:13.227Z,99011.88
2022-09-28T15:41:17.098Z,99014.23
2022-09-28T15:46:21.327Z,99016.16
2022-09-28T15:51:27.823Z,99015.97
2022-09-28T15:56:33.142Z,99014.62
2022-09-28T16:01:40.774Z,99014.56
2022-09-28T16:06:47.533Z,99015.46
2022-09-28T16:11:51.495Z,99019.56
2022-09-28T16:16:55.265Z,99025.80
2022-09-28T16:22:02.361Z,99038.52
2022-09-28T16:27:23.209Z,99041.08
2022-09-28T16:32:41.077Z,99045.89
2022-09-28T16:38:05.085Z,99054.50
2022-09-28T16:43:20.708Z,99052.76
2022-09-28T16:48:27.513Z,99052.59
2022-09-28T16:53:55.618Z,99061.98
2022-09-28T16:59:14.609Z,99076.46
2022-09-28T17:04:19.285Z,99078.74
2022-09-28T17:09:23.134Z,99079.70
2022-09-28T17:14:27.849Z,99073.59
2022-09-28T17:19:31.877Z,99073.53
2022-09-28T17:24:36.741Z,99069.61
2022-09-28T17:29:43.014Z,99067.57
2022-09-28T17:34:55.936Z,99069.03
2022-09-28T17:40:14.837Z,99069.48
2022-09-28T17:45:18.767Z,99068.98
2022-09-28T17:50:25.386Z,99069.08
2022-09-28T17:55:31.354Z,99069.25
2022-09-28T18:00:35.192Z,99075.44
2022-09-28T18:05:39.582Z,99074.02
2022-09-28T18:10:46.527Z,99076.84
2022-09-28T18:15:53.260Z,99086.16
2022-09-28T18:21:02.045Z,99089.42
2022-09-28T18:26:12.043Z,99092.39
2022-09-28T18:31:18.823Z,99095.40
2022-09-28T18:36:27.365Z,99096.09
2022-09-28T18:41:31.283Z,99095.29
2022-09-28T18:46:36.133Z,99090.77
2022-09-28T18:51:40.197Z,99092.35
2022-09-28T18:56:45.750Z,99096.52
2022-09-28T19:01:51.109Z,99095.84
2022-09-28T19:06:54.807Z,99098.30
2022-09-28T19:11:58.425Z,99100.06
2022-09-28T19:17:02.251Z,99105.42
2022-09-28T19:22:06.608Z,99107.24
2022-09-28T19:27:10.618Z,99114.00
2022-09-28T19:32:14.867Z,99116.91
2022-09-28T19:37:18.471Z,99120.14
2022-09-28T19:42:23.744Z,99125.19
2022-09-28T19:47:27.770Z,99122.99
2022-09-28T19:52:31.361Z,99120.97
2022-09-28T19:57:35.116Z,99120.12
2022-09-28T20:02:38.906Z,99121.23
2022-09-28T20:07:42.846Z,99121.17
2022-09-28T20:12:51.213Z,99121.20
2022-09-28T20:17:55.669Z,99124.33
2022-09-28T20:23:02.581Z,99123.70
2022-09-28T20:28:11.305Z,99123.39
2022-09-28T20:33:19.171Z,99126.04
2022-09-28T20:38:31.434Z,99127.97
2022-09-28T20:43:35.779Z,99126.48
2022-09-28T20:48:40.491Z,99123.83
2022-09-28T20:53:50.229Z,99120.35
2022-09-28T20:59:00.830Z,99123.02
2022-09-28T21:04:05.823Z,99126.05
2022-09-28T21:09:11.732Z,99126.70
2022-09-28T21:14:16.266Z,99128.29
2022-09-28T21:19:21.923Z,99126.14
2022-09-28T21:24:26.991Z,99128.31
2022-09-28T21:29:31.541Z,99138.90
2022-09-28T21:34:35.660Z,99143.88
2022-09-28T21:39:40.028Z,99141.65
2022-09-28T21:44:47.874Z,99144.87
2022-09-28T21:49:52.598Z,99144.61
2022-09-28T21:55:01.214Z,99149.20
2022-09-28T22:00:11.041Z,99155.27
2022-09-28T22:05:16.568Z,99161.63
2022-09-28T22:10:21.487Z,99169.36
2022-09-28T22:15:28.726Z,99169.39
2022-09-28T22:20:34.154Z,99173.80
2022-09-28T22:25:39.479Z,99181.13
2022-09-28T22:30:46.188Z,99185.61
2022-09-28T22:35:54.644Z,99191.12
2022-09-28T22:40:59.426Z,99194.95
2022-09-28T22:46:05.622Z,99199.84
2022-09-28T22:51:10.161Z,99207.14
2022-09-28T22:56:18.805Z,99209.20
2022-09-28T23:01:27.774Z,99208.71
2022-09-28T23:06:36.042Z,99208.18
2022-09-28T23:18:10.940Z,99215.39
2022-09-28T23:23:16.722Z,99217.15
2022-09-28T23:28:23.716Z,99216.55
2022-09-28T23:33:28.841Z,99220.30
2022-09-28T23:38:42.121Z,99221.10
2022-09-28T23:43:47.306Z,99222.80
2022-09-28T23:48:55.730Z,99222.50
2022-09-28T23:54:04.939Z,99222.85
2022-09-28T23:59:10.274Z,99222.70
